• Join FlightAware (Why Join?)
  • Login
  • US Flag 
04:11AM EDT


 

Airport Tracker/Info


-or-


 

Live Flight TrackerFlight Track Log ✈ AWE3287 ✈ 05-May-2013 ✈ KDTW - KPHL

Flight Track Log - Related Links

Times and Time Zones

All times are in EDT time to prevent confusion due to time zone crossing. See the AWE3287 flight status page for this flight to view local times or setup timezone preferences in your user account.

Time Position Orientation Groundspeed Altitude Reporting Facility
EDT Latitude Longitude Course Direction KTS MPH feet Rate Location/Type
11:46AM 42.2314 -83.3342 90° East 157 181 1,300  Level Cleveland Center
11:47AM 42.2822 -83.2972 28° Northeast 218 251 3,300 2,220 Climbing Cleveland Center
11:48AM 42.3311 -83.2572 31° Northeast 254 292 5,800 2,940 Climbing Cleveland Center
11:49AM 42.2167 -82.7637 90° East  Level FlightAware Approximate
11:49AM 42.3350 -83.1731 86° East 243 280 8,800  Level Cleveland Center
11:50AM 42.2167 -82.6159 90° East  Level FlightAware Approximate
11:50AM 42.3186 -83.0769 103° East 266 306 11,000  Level Cleveland Center
11:51AM 42.2167 -82.4681 90° East  Level FlightAware Approximate
11:51AM 42.3019 -82.9667 102° East 281 323 13,500  Level Cleveland Center
11:52AM 42.2856 -82.8539 101° East 298 343 16,200 2,340 Climbing Cleveland Center
11:53AM 42.2669 -82.7325 102° East 309 356 18,200 2,040 Climbing Cleveland Center
11:54AM 42.2464 -82.6083 103° East 321 369 20,300 1,980 Climbing Cleveland Center
11:55AM 42.2278 -82.4786 101° East 335 386 22,200 1,320 Climbing Cleveland Center
11:56AM 42.2153 -82.3411 97° East 358 412 23,000 600 Climbing Cleveland Center
11:57AM 42.2050 -82.2033 96° East 363 418 23,500 900 Climbing Cleveland Center
11:58AM 42.1964 -82.0658 95° East 369 425 24,900 1,380 Climbing Cleveland Center
11:59AM 42.1731 -81.9222 102° East 382 440 26,300 1,260 Climbing Cleveland Center
12:00PM 42.0950 -81.8228 137° Southeast 377 434 27,500 1,200 Climbing Cleveland Center
12:01PM 42.0064 -81.7233 140° Southeast 383 441 28,800 1,200 Climbing Cleveland Center
12:02PM 41.9197 -81.6242 140° Southeast 408 470 30,000 1,200 Climbing Cleveland Center
12:03PM 41.8331 -81.5250 140° Southeast 408 470 31,300 1,380 Climbing Cleveland Center
12:04PM 41.7464 -81.4292 140° Southeast 408 470 32,800 840 Climbing Cleveland Center
12:05PM 41.6719 -81.3392 138° Southeast 403 464 33,000 60 Climbing Cleveland Center
12:06PM 41.5892 -81.2439 139° Southeast 403 464 33,000  Level Cleveland Center
12:07PM 41.5061 -81.1461 139° Southeast 403 464 33,000  Level Cleveland Center
12:08PM 41.4275 -81.0400 135° Southeast 398 458 33,000  Level Cleveland Center
12:09PM 41.3425 -80.9233 134° Southeast 398 458 33,000  Level Cleveland Center
12:10PM 41.2656 -80.8178 134° Southeast 398 458 33,000  Level Cleveland Center
12:11PM 41.1867 -80.7072 133° Southeast 403 464 33,000  Level Cleveland Center
12:12PM 41.1117 -80.5997 133° Southeast 403 464 33,000  Level Cleveland Center
12:13PM 41.0322 -80.4922 134° Southeast 403 464 33,000  Level Cleveland Center
12:14PM 40.9550 -80.3853 134° Southeast 403 464 33,000  Level Cleveland Center
12:15PM 40.8756 -80.2783 134° Southeast 403 464 33,000  Level Cleveland Center
12:16PM 40.8064 -80.1633 128° Southeast 403 464 33,000  Level Cleveland Center
12:17PM 40.7581 -80.0294 115° Southeast 403 464 33,000  Level Cleveland Center
12:18PM 40.7092 -79.8928 115° Southeast 410 472 33,000  Level Cleveland Center
12:19PM 40.6603 -79.7564 115° Southeast 410 472 33,000  Level Cleveland Center
12:20PM 40.6114 -79.6203 115° Southeast 404 465 33,000  Level Cleveland Center
12:21PM 40.5603 -79.4872 117° Southeast 404 465 33,000  Level Cleveland Center
12:22PM 40.5108 -79.3486 115° Southeast 404 465 33,000  Level Cleveland Center
12:23PM 40.4694 -79.2075 111° Southeast 404 465 33,000  Level Cleveland Center
12:24PM 40.4531 -79.0578 98° East 404 465 33,000  Level Cleveland Center
12:25PM 40.4342 -78.9056 99° East 414 476 33,000  Level Cleveland Center
12:26PM 40.4153 -78.7586 100° East 414 476 33,000  Level Cleveland Center
12:27PM 40.3939 -78.6039 100° East 414 476 33,000 -540 Level Cleveland Center
12:28PM 40.3767 -78.4572 99° East 414 476 32,000 -1,620 Descending Cleveland Center
12:29PM 40.3594 -78.3189 99° East 419 482 29,800 -2,220 Descending Cleveland Center
12:31PM 40.3172 -78.0017 100° East 410 472 25,200 -1,800 Descending New York Center
12:32PM 40.3111 -77.8650 93° East 390 449 24,400 -960 Descending New York Center
12:33PM 40.3108 -77.7286 90° East 384 442 23,300 -720 Descending New York Center
12:34PM 40.3100 -77.5981 90° East 372 428 23,000 -540 Descending New York Center
12:35PM 40.3089 -77.4700 91° East 360 414 22,300 -1,020 Descending New York Center
12:36PM 40.3078 -77.3417 91° East 360 414 21,000 -900 Descending New York Center
12:37PM 40.3022 -77.2161 93° East 348 400 20,600 -780 Descending New York Center
12:38PM 40.2964 -77.0931 94° East 348 400 19,500 -840 Descending New York Center
12:39PM 40.2714 -76.9736 105° East 338 389 19,000 -360 Descending New York Center
12:40PM 40.2444 -76.8542 106° East 343 395 18,800 -660 Descending New York Center
12:41PM 40.2189 -76.7406 106° East 343 395 17,800 -1,140 Descending New York Center
12:42PM 40.1914 -76.6239 107° East 338 389 16,600 -1,020 Descending New York Center
12:43PM 40.1714 -76.5217 104° East 326 375 15,800 -960 Descending New York Center
12:44PM 40.1439 -76.3972 106° East 326 375 14,700 -1,140 Descending New York Center
12:45PM 40.1236 -76.3006 105° East 319 367 13,600 -1,140 Descending New York Center
12:46PM 40.1122 -76.1883 98° East 308 354 12,500 -1,260 Descending New York Center
12:47PM 40.1011 -76.0628 97° East 308 354 11,200 -1,200 Descending New York Center
12:48PM 40.0969 -75.9700 93° East 308 354 10,200 -1,080 Descending New York Center
12:49PM 40.0872 -75.8581 96° East 285 328 9,100 -1,020 Descending New York Center
12:50PM 40.0825 -75.7736 94° East 269 310 8,200 -1,020 Descending New York Center
12:51PM 40.0764 -75.6700 94° East 269 310 7,100 -1,140 Descending New York Center
12:52PM 40.0736 -75.5858 92° East 258 297 6,000 -600 Descending New York Center
12:53PM 40.0672 -75.4850 95° East 258 297 6,000  Level New York Center
12:54PM 40.0408 -75.4181 117° Southeast 239 275 6,000  Level New York Center
12:55PM 39.9769 -75.3950 165° South 203 234 6,000  Level New York Center
12:56PM 39.9333 -75.4436 221° Southwest 196 226 6,000 -660 Level New York Center
12:57PM 39.9078 -75.5094 243° Southwest 191 220 4,800 -1,020 Descending New York Center
12:58PM 39.8906 -75.5758 251° West 217 250 4,000 -660 Descending New York Center
12:59PM 39.8383 -75.5806 184° South 156 180 3,600 -960 Descending New York Center
01:00PM 39.8167 -75.5000 109° East 178 205 2,000 -780 Descending Philadelphia TRACON
01:01PM 39.8333 -75.4500 67° East 170 196 2,000 -120 Level Philadelphia TRACON
01:02PM 39.8333 -75.3833 90° East 169 194 1,800 -540 Descending Philadelphia TRACON
01:03PM 39.8500 -75.3333 67° East 137 158 1,000 -720 Descending Philadelphia TRACON
01:04PM 39.8500 -75.3000 90° East 122 140 400 -600 Descending Philadelphia TRACON